createdAt,value
2018-09-27T00:01:01.448Z,70.90
2018-09-27T00:03:29.420Z,71.50
2018-09-27T00:05:57.350Z,71.10
2018-09-27T00:08:25.260Z,72.50
2018-09-27T00:10:53.191Z,71.00
2018-09-27T00:13:21.141Z,70.80
2018-09-27T00:15:49.105Z,70.70
2018-09-27T00:18:17.001Z,71.30
2018-09-27T00:20:44.913Z,71.70
2018-09-27T00:23:12.862Z,71.40
2018-09-27T00:25:40.770Z,71.00
2018-09-27T00:28:08.749Z,71.10
2018-09-27T00:30:36.637Z,71.20
2018-09-27T00:33:04.522Z,71.40
2018-09-27T00:35:32.451Z,71.30
2018-09-27T00:38:00.370Z,71.30
2018-09-27T00:40:28.312Z,71.30
2018-09-27T00:42:56.230Z,71.20
2018-09-27T00:45:24.162Z,71.30
2018-09-27T00:47:52.134Z,71.50
2018-09-27T00:50:20.082Z,71.70
2018-09-27T00:52:48.020Z,71.50
2018-09-27T00:55:15.909Z,71.60
2018-09-27T00:57:43.793Z,71.60
2018-09-27T01:00:11.766Z,71.60
2018-09-27T01:02:39.718Z,71.80
2018-09-27T01:05:07.669Z,72.00
2018-09-27T01:07:35.605Z,72.40
2018-09-27T01:10:03.551Z,72.10
2018-09-27T01:12:31.520Z,72.20
2018-09-27T01:14:59.414Z,72.20
2018-09-27T01:17:27.373Z,73.00
2018-09-27T01:19:55.242Z,72.80
2018-09-27T01:22:23.224Z,72.90
2018-09-27T01:24:51.165Z,72.90
2018-09-27T01:27:19.133Z,73.00
2018-09-27T01:29:47.025Z,73.10
2018-09-27T01:32:14.926Z,73.20
2018-09-27T01:34:42.852Z,73.20
2018-09-27T01:37:10.757Z,73.20
2018-09-27T01:39:38.711Z,73.30
2018-09-27T01:42:06.602Z,73.60
2018-09-27T01:44:34.500Z,73.60
2018-09-27T01:47:02.452Z,73.50
2018-09-27T01:49:30.348Z,73.70
2018-09-27T01:51:58.257Z,73.50
2018-09-27T01:54:26.157Z,75.40
2018-09-27T01:56:54.062Z,74.60
2018-09-27T01:59:22.014Z,74.50
2018-09-27T02:01:49.954Z,74.70
2018-09-27T02:04:17.882Z,74.80
2018-09-27T02:06:45.781Z,74.90
2018-09-27T02:09:13.645Z,75.10
2018-09-27T02:11:41.582Z,75.00
2018-09-27T02:14:09.538Z,74.70
2018-09-27T02:16:37.483Z,74.70
2018-09-27T02:19:05.483Z,74.90
2018-09-27T02:21:33.356Z,74.90
2018-09-27T02:24:01.335Z,75.30
2018-09-27T02:26:29.253Z,76.20
2018-09-27T02:28:57.182Z,75.40
2018-09-27T02:31:25.150Z,75.40
2018-09-27T02:33:53.110Z,76.10
2018-09-27T02:36:21.066Z,75.70
2018-09-27T02:38:48.961Z,76.00
2018-09-27T02:41:16.842Z,76.30
2018-09-27T02:43:44.792Z,76.20
2018-09-27T02:46:12.689Z,76.20
2018-09-27T02:48:40.653Z,76.80
2018-09-27T02:51:08.593Z,76.50
2018-09-27T02:53:36.548Z,76.60
2018-09-27T02:56:04.493Z,76.60
2018-09-27T02:58:32.411Z,76.80
2018-09-27T03:01:00.365Z,76.80
2018-09-27T03:03:28.282Z,76.70
2018-09-27T03:05:56.293Z,76.60
2018-09-27T03:08:24.268Z,76.80
2018-09-27T03:10:52.576Z,76.90
2018-09-27T03:13:20.605Z,77.20
2018-09-27T03:15:48.675Z,77.10
2018-09-27T03:18:16.608Z,77.20
2018-09-27T03:20:44.571Z,78.20
2018-09-27T03:23:12.549Z,78.90
2018-09-27T03:25:41.027Z,78.20
2018-09-27T03:28:08.989Z,77.90
2018-09-27T03:30:37.027Z,77.60
2018-09-27T03:33:05.137Z,77.60
2018-09-27T03:35:33.117Z,77.80
2018-09-27T03:38:01.213Z,77.60
2018-09-27T03:40:29.186Z,77.30
2018-09-27T03:42:57.214Z,78.00
2018-09-27T03:45:25.173Z,77.50
2018-09-27T03:47:53.105Z,77.60
2018-09-27T03:50:21.311Z,77.40
2018-09-27T03:52:49.234Z,77.40
2018-09-27T03:55:17.222Z,77.60
2018-09-27T03:57:45.267Z,77.70
2018-09-27T04:00:13.234Z,77.60
2018-09-27T04:02:41.248Z,77.80
2018-09-27T04:05:09.201Z,77.80
2018-09-27T04:07:37.143Z,77.80
2018-09-27T04:10:05.137Z,77.60
2018-09-27T04:12:33.045Z,77.70
2018-09-27T04:15:01.014Z,77.50
2018-09-27T04:17:29.009Z,77.60
2018-09-27T04:19:57.008Z,77.70
2018-09-27T04:22:24.983Z,77.90
2018-09-27T04:24:52.988Z,78.00
2018-09-27T04:27:20.965Z,78.40
2018-09-27T04:29:48.908Z,78.20
2018-09-27T04:32:16.831Z,78.90
2018-09-27T04:34:44.803Z,79.50
2018-09-27T04:37:12.773Z,79.60
2018-09-27T04:39:40.813Z,79.50
2018-09-27T04:42:08.789Z,79.10
2018-09-27T04:44:36.802Z,78.70
2018-09-27T04:47:04.869Z,78.60
2018-09-27T04:49:32.862Z,78.80
2018-09-27T04:52:00.782Z,78.60
2018-09-27T04:54:28.838Z,79.50
2018-09-27T04:56:56.892Z,80.40
2018-09-27T04:59:24.979Z,79.80
2018-09-27T05:01:53.072Z,79.80
2018-09-27T05:04:21.225Z,79.50
2018-09-27T05:06:49.305Z,79.20
2018-09-27T05:09:17.376Z,79.00
2018-09-27T05:11:45.831Z,78.90
2018-09-27T05:14:13.941Z,78.80
2018-09-27T05:16:42.049Z,78.80
2018-09-27T05:19:10.289Z,79.40
2018-09-27T05:21:38.451Z,79.10
2018-09-27T05:24:06.481Z,78.90
2018-09-27T05:26:35.438Z,79.00
2018-09-27T05:29:03.548Z,79.20
2018-09-27T05:31:31.577Z,79.20
2018-09-27T05:33:59.629Z,79.00
2018-09-27T05:36:27.734Z,79.20
2018-09-27T05:38:55.792Z,79.30
2018-09-27T05:41:24.672Z,79.40
2018-09-27T05:44:02.348Z,79.50
2018-09-27T05:46:30.537Z,79.40
2018-09-27T05:48:58.868Z,79.50
2018-09-27T05:51:27.006Z,79.60
2018-09-27T05:53:55.133Z,79.50
2018-09-27T05:56:23.256Z,79.80
2018-09-27T05:58:51.505Z,80.10
2018-09-27T06:01:20.305Z,80.00
2018-09-27T06:03:48.379Z,80.30
2018-09-27T06:06:16.456Z,80.20
2018-09-27T06:08:44.564Z,80.30
2018-09-27T06:11:12.738Z,80.40
2018-09-27T06:13:40.819Z,80.60
2018-09-27T06:16:08.937Z,80.60
2018-09-27T06:18:37.034Z,80.60
2018-09-27T06:21:05.079Z,81.80
2018-09-27T06:23:33.149Z,81.70
2018-09-27T06:26:01.285Z,81.30
2018-09-27T06:28:29.359Z,82.80
2018-09-27T06:30:57.432Z,82.30
2018-09-27T06:33:25.465Z,81.50
2018-09-27T06:35:54.267Z,81.70
2018-09-27T06:38:22.341Z,83.40
2018-09-27T06:40:50.412Z,82.40
2018-09-27T06:43:18.501Z,82.00
2018-09-27T06:45:46.565Z,83.40
2018-09-27T06:48:14.729Z,82.30
2018-09-27T06:50:42.915Z,81.90
2018-09-27T06:53:10.957Z,82.10
2018-09-27T06:55:39.154Z,81.60
2018-09-27T06:58:07.207Z,81.30
2018-09-27T07:00:35.276Z,82.00
2018-09-27T07:03:03.309Z,81.40
2018-09-27T07:05:31.369Z,81.00
2018-09-27T07:07:59.465Z,81.00
2018-09-27T07:10:27.589Z,80.80
2018-09-27T07:12:55.698Z,80.50
2018-09-27T07:15:23.749Z,80.40
2018-09-27T07:17:51.899Z,81.30
2018-09-27T07:20:20.030Z,81.20
2018-09-27T07:22:48.112Z,80.60
2018-09-27T07:25:16.229Z,80.30
2018-09-27T07:27:44.240Z,80.00
2018-09-27T07:30:12.400Z,80.40
2018-09-27T07:32:40.505Z,80.60
2018-09-27T07:35:08.527Z,80.00
2018-09-27T07:37:36.548Z,80.00
2018-09-27T07:40:05.331Z,80.10
2018-09-27T07:42:33.460Z,80.50
2018-09-27T07:45:01.489Z,80.00
2018-09-27T07:47:29.656Z,79.90
2018-09-27T07:49:57.731Z,80.10
2018-09-27T07:52:25.790Z,80.60
2018-09-27T07:54:54.024Z,81.40
2018-09-27T07:57:21.997Z,81.40
2018-09-27T07:59:50.034Z,79.50
2018-09-27T08:02:18.124Z,78.90
2018-09-27T08:04:46.169Z,79.80
2018-09-27T08:07:14.280Z,80.40
2018-09-27T08:09:42.356Z,80.60
2018-09-27T08:12:10.428Z,79.90
2018-09-27T08:14:38.568Z,79.70
2018-09-27T08:17:06.599Z,79.20
2018-09-27T08:19:34.656Z,79.00
2018-09-27T08:22:02.647Z,79.40
2018-09-27T08:24:30.667Z,79.60
2018-09-27T08:26:58.724Z,79.40
2018-09-27T08:29:26.716Z,79.00
2018-09-27T08:31:54.768Z,79.40
2018-09-27T08:34:22.844Z,79.10
2018-09-27T08:36:50.856Z,79.40
2018-09-27T08:39:18.989Z,78.80
2018-09-27T08:41:47.033Z,78.80
2018-09-27T08:44:15.150Z,78.60
2018-09-27T08:46:43.192Z,78.50
2018-09-27T08:49:11.207Z,78.20
2018-09-27T08:51:39.382Z,78.40
2018-09-27T08:54:07.538Z,78.20
2018-09-27T08:56:35.639Z,78.00
2018-09-27T08:59:03.711Z,77.60
2018-09-27T09:01:31.745Z,77.80
2018-09-27T09:04:00.592Z,77.30
2018-09-27T09:06:28.686Z,77.50
2018-09-27T09:08:56.714Z,77.20
2018-09-27T09:11:24.752Z,76.40
2018-09-27T09:13:52.764Z,75.70
2018-09-27T09:16:20.858Z,76.00
2018-09-27T09:18:48.914Z,75.40
2018-09-27T09:21:17.037Z,75.60
2018-09-27T09:23:45.023Z,75.00
2018-09-27T09:26:13.038Z,74.70
2018-09-27T09:28:41.258Z,74.20
2018-09-27T09:31:09.156Z,74.70
2018-09-27T09:33:37.353Z,75.50
2018-09-27T09:36:05.431Z,75.00
2018-09-27T09:38:33.522Z,73.90
2018-09-27T09:41:01.538Z,74.30
2018-09-27T09:43:29.573Z,74.50
2018-09-27T09:45:57.688Z,74.10
2018-09-27T09:48:25.680Z,73.30
2018-09-27T09:50:53.695Z,73.20
2018-09-27T09:53:21.700Z,73.10
2018-09-27T09:55:49.728Z,73.60
2018-09-27T09:58:17.830Z,73.10
2018-09-27T10:00:45.856Z,72.80
2018-09-27T10:03:13.856Z,70.90
2018-09-27T10:05:41.930Z,69.50
2018-09-27T10:08:09.977Z,67.30
2018-09-27T10:10:38.038Z,69.80
2018-09-27T10:13:06.087Z,70.70
2018-09-27T10:15:34.157Z,71.20
2018-09-27T10:18:02.185Z,69.80
2018-09-27T10:20:30.203Z,68.90
2018-09-27T10:22:58.246Z,70.80
2018-09-27T10:25:26.261Z,69.60
2018-09-27T10:27:54.308Z,70.40
2018-09-27T10:30:22.460Z,69.10
2018-09-27T10:32:51.221Z,67.70
2018-09-27T10:35:19.488Z,68.00
2018-09-27T10:37:47.811Z,66.90
2018-09-27T10:40:16.113Z,65.80
2018-09-27T10:42:44.189Z,66.20
2018-09-27T10:45:12.149Z,65.70
2018-09-27T10:47:40.041Z,65.10
2018-09-27T10:50:08.080Z,64.90
2018-09-27T10:52:36.106Z,63.90
2018-09-27T10:55:04.360Z,62.80
2018-09-27T10:57:32.256Z,59.80
2018-09-27T11:00:00.223Z,62.10
2018-09-27T11:02:28.198Z,63.60
2018-09-27T11:04:56.126Z,64.00
2018-09-27T11:07:24.085Z,63.50
2018-09-27T11:09:52.014Z,61.70
2018-09-27T11:12:19.984Z,62.60
2018-09-27T11:14:47.918Z,59.50
2018-09-27T11:17:15.795Z,59.50
2018-09-27T11:19:43.818Z,60.60
2018-09-27T11:22:11.697Z,59.30
2018-09-27T11:24:39.637Z,60.40
2018-09-27T11:27:07.745Z,60.80
2018-09-27T11:30:39.909Z,55.00
2018-09-27T11:33:07.842Z,57.90
2018-09-27T11:35:35.709Z,57.70
2018-09-27T11:38:03.758Z,57.60
2018-09-27T11:40:31.669Z,59.20
2018-09-27T11:42:59.610Z,56.60
2018-09-27T11:45:27.521Z,58.30
2018-09-27T11:47:55.565Z,59.60
2018-09-27T11:50:23.639Z,60.20
2018-09-27T11:52:51.510Z,61.00
2018-09-27T11:55:19.467Z,56.60
2018-09-27T11:57:47.440Z,59.10
2018-09-27T12:00:15.458Z,58.20
2018-09-27T12:02:44.093Z,56.80
2018-09-27T12:05:12.045Z,55.10
2018-09-27T12:07:40.012Z,55.40
2018-09-27T12:10:07.929Z,56.20
2018-09-27T12:12:35.898Z,55.20
2018-09-27T12:15:03.999Z,54.10
2018-09-27T12:17:31.961Z,53.10
2018-09-27T12:19:59.888Z,52.60
2018-09-27T12:22:27.801Z,52.70
2018-09-27T12:24:55.707Z,54.70
2018-09-27T12:27:23.672Z,53.50
2018-09-27T12:29:51.610Z,54.30
2018-09-27T12:32:19.559Z,55.30
2018-09-27T12:34:47.493Z,56.30
2018-09-27T12:37:15.368Z,56.90
2018-09-27T12:39:43.418Z,56.00
2018-09-27T12:42:11.272Z,54.20
2018-09-27T12:44:39.134Z,52.30
2018-09-27T12:47:07.115Z,54.90
2018-09-27T12:49:35.044Z,51.90
2018-09-27T12:52:04.248Z,49.20
2018-09-27T12:54:32.016Z,49.00
2018-09-27T12:57:00.825Z,49.00
2018-09-27T12:59:28.732Z,48.50
2018-09-27T13:01:56.804Z,48.80
2018-09-27T13:04:24.652Z,49.60
2018-09-27T13:06:52.635Z,51.30
2018-09-27T13:09:20.700Z,51.30
2018-09-27T13:11:48.487Z,51.50
2018-09-27T13:14:16.422Z,52.40
2018-09-27T13:16:44.376Z,50.90
2018-09-27T13:19:13.464Z,48.20
2018-09-27T13:21:41.495Z,49.00
2018-09-27T13:24:09.401Z,47.50
2018-09-27T13:26:37.385Z,49.10
2018-09-27T13:29:05.299Z,47.30
2018-09-27T13:31:33.250Z,48.70
2018-09-27T13:34:01.253Z,47.00
2018-09-27T13:36:29.806Z,48.20
2018-09-27T13:38:57.758Z,41.40
2018-09-27T13:41:25.728Z,60.30
2018-09-27T13:43:53.650Z,45.10
2018-09-27T13:46:21.586Z,42.50
2018-09-27T13:48:49.521Z,45.00
2018-09-27T13:51:17.454Z,46.20
2018-09-27T13:53:45.400Z,45.40
2018-09-27T13:56:13.307Z,45.80
2018-09-27T13:58:41.230Z,41.10
2018-09-27T14:03:37.007Z,41.50
2018-09-27T14:06:05.025Z,42.20
2018-09-27T14:08:33.063Z,41.60
2018-09-27T14:20:52.493Z,65.00
2018-09-27T16:41:21.810Z,29.90
2018-09-27T16:43:49.787Z,32.20
2018-09-27T16:46:17.759Z,32.50
2018-09-27T16:48:45.748Z,32.80
2018-09-27T16:51:13.687Z,33.50
2018-09-27T16:53:41.704Z,34.20
2018-09-27T16:56:09.641Z,35.10
2018-09-27T16:58:37.554Z,35.00
2018-09-27T17:01:05.748Z,35.00
2018-09-27T17:23:16.453Z,41.00
2018-09-27T17:25:45.065Z,41.00
2018-09-27T17:28:13.250Z,41.00
2018-09-27T17:30:41.417Z,41.20
2018-09-27T17:33:09.847Z,41.40
2018-09-27T17:35:38.113Z,42.30
2018-09-27T17:38:06.313Z,41.80
2018-09-27T17:40:34.425Z,42.40
2018-09-27T17:43:02.879Z,42.80
2018-09-27T17:45:30.879Z,43.10
2018-09-27T17:47:58.953Z,43.70
2018-09-27T17:50:26.968Z,44.10
2018-09-27T17:52:54.893Z,44.70
2018-09-27T17:55:22.916Z,44.80
2018-09-27T17:57:50.913Z,45.50
2018-09-27T18:00:18.821Z,45.50
2018-09-27T18:02:46.814Z,46.00
2018-09-27T18:05:19.162Z,46.30
2018-09-27T18:07:42.731Z,46.40
2018-09-27T18:10:10.762Z,46.80
2018-09-27T18:12:38.710Z,47.20
2018-09-27T18:15:06.710Z,47.40
2018-09-27T18:17:34.727Z,47.60
2018-09-27T18:20:02.702Z,47.80
2018-09-27T18:22:31.007Z,47.80
2018-09-27T18:24:58.945Z,48.20
2018-09-27T18:27:26.933Z,49.30
2018-09-27T18:29:54.933Z,48.90
2018-09-27T18:32:22.922Z,49.40
2018-09-27T18:34:50.885Z,49.70
2018-09-27T18:37:18.886Z,50.00
2018-09-27T18:39:46.853Z,50.10
2018-09-27T18:42:14.825Z,50.60
2018-09-27T18:44:42.813Z,50.80
2018-09-27T18:47:10.826Z,51.10
2018-09-27T18:49:38.712Z,51.20
2018-09-27T18:52:06.664Z,51.30
2018-09-27T18:54:34.629Z,51.80
2018-09-27T18:57:02.643Z,51.90
2018-09-27T18:59:30.640Z,52.30
2018-09-27T19:01:58.568Z,52.30
2018-09-27T19:04:26.568Z,52.50
2018-09-27T19:06:54.544Z,52.70
2018-09-27T19:09:22.476Z,52.80
2018-09-27T19:11:50.518Z,53.10
2018-09-27T19:14:18.837Z,53.00
2018-09-27T19:16:46.833Z,53.50
2018-09-27T19:19:14.742Z,53.50
2018-09-27T19:21:42.650Z,53.70
2018-09-27T19:24:10.569Z,54.00
2018-09-27T19:26:38.481Z,54.10
2018-09-27T19:29:07.008Z,53.90
2018-09-27T19:31:34.962Z,54.10
2018-09-27T19:34:02.913Z,54.40
2018-09-27T19:36:30.908Z,54.30
2018-09-27T19:38:58.827Z,54.70
2018-09-27T19:41:26.816Z,54.70
2018-09-27T19:43:54.745Z,54.80
2018-09-27T19:46:22.638Z,55.00
2018-09-27T19:48:50.611Z,55.20
2018-09-27T19:51:18.540Z,55.60
2018-09-27T19:53:46.562Z,55.60
2018-09-27T19:56:14.657Z,55.90
2018-09-27T19:58:42.651Z,55.90
2018-09-27T20:01:10.638Z,55.80
2018-09-27T20:03:38.548Z,56.10
2018-09-27T20:06:06.390Z,56.10
2018-09-27T20:08:34.301Z,56.60
2018-09-27T20:11:02.233Z,56.40
2018-09-27T20:13:30.163Z,56.80
2018-09-27T20:15:58.111Z,57.00
2018-09-27T20:18:26.046Z,57.20
2018-09-27T20:20:53.954Z,57.30
2018-09-27T20:23:21.890Z,57.60
2018-09-27T20:25:49.803Z,58.00
2018-09-27T20:28:17.768Z,57.90
2018-09-27T20:30:45.690Z,58.00
2018-09-27T20:33:13.573Z,58.10
2018-09-27T20:35:41.477Z,58.30
2018-09-27T20:38:09.462Z,58.50
2018-09-27T20:40:37.421Z,58.80
2018-09-27T20:43:05.398Z,58.80
2018-09-27T20:45:33.422Z,59.10
2018-09-27T20:48:01.321Z,59.30
2018-09-27T20:50:29.258Z,59.60
2018-09-27T20:52:57.178Z,59.60
2018-09-27T20:55:25.873Z,60.10
2018-09-27T20:57:53.873Z,61.50
2018-09-27T21:00:21.857Z,61.10
2018-09-27T21:02:49.781Z,62.00
2018-09-27T21:05:17.853Z,61.80
2018-09-27T21:07:45.952Z,61.60
2018-09-27T21:12:57.410Z,61.60
2018-09-27T21:15:25.343Z,62.10
2018-09-27T21:17:53.358Z,62.20
2018-09-27T21:20:21.518Z,62.30
2018-09-27T21:22:49.426Z,62.30
2018-09-27T21:25:17.381Z,62.20
2018-09-27T21:27:45.355Z,62.20
2018-09-27T21:30:13.293Z,62.20
2018-09-27T21:32:41.250Z,62.50
2018-09-27T21:35:09.173Z,62.50
2018-09-27T21:37:37.166Z,62.50
2018-09-27T21:40:05.508Z,62.70
2018-09-27T21:42:33.449Z,62.80
2018-09-27T21:45:01.766Z,62.90
2018-09-27T21:47:31.160Z,63.40
2018-09-27T21:49:59.176Z,63.40
2018-09-27T21:52:27.071Z,63.60
2018-09-27T21:54:55.017Z,64.00
2018-09-27T21:57:23.037Z,64.00
2018-09-27T21:59:51.408Z,64.10
2018-09-27T22:02:19.344Z,64.10
2018-09-27T22:04:47.285Z,64.20
2018-09-27T22:07:15.232Z,64.20
2018-09-27T22:09:43.182Z,64.30
2018-09-27T22:12:11.075Z,65.00
2018-09-27T22:14:39.050Z,64.90
2018-09-27T22:17:07.093Z,64.90
2018-09-27T22:19:35.096Z,65.20
2018-09-27T22:22:03.109Z,65.50
2018-09-27T22:24:31.094Z,65.80
2018-09-27T22:26:59.052Z,65.70
2018-09-27T22:29:27.098Z,65.80
2018-09-27T22:31:56.068Z,66.70
2018-09-27T22:34:24.049Z,66.70
2018-09-27T22:36:51.950Z,67.10
2018-09-27T22:39:20.374Z,66.50
2018-09-27T22:41:49.018Z,67.00
2018-09-27T22:44:16.917Z,67.60
2018-09-27T22:46:44.851Z,67.40
2018-09-27T22:49:12.913Z,67.10
2018-09-27T22:51:40.897Z,67.00
2018-09-27T22:54:08.849Z,66.90
2018-09-27T22:56:36.797Z,66.90
2018-09-27T22:59:04.793Z,67.80
2018-09-27T23:01:32.789Z,67.40
2018-09-27T23:04:00.804Z,67.20
2018-09-27T23:06:28.793Z,67.30
2018-09-27T23:08:56.776Z,67.40
2018-09-27T23:11:24.884Z,67.80
2018-09-27T23:13:52.881Z,67.70
2018-09-27T23:16:20.882Z,67.70
2018-09-27T23:18:49.258Z,68.40
2018-09-27T23:21:18.152Z,68.00
2018-09-27T23:23:46.228Z,67.90
2018-09-27T23:26:14.773Z,68.20
2018-09-27T23:28:42.709Z,68.40
2018-09-27T23:31:10.620Z,68.20
2018-09-27T23:33:38.736Z,69.50
2018-09-27T23:36:06.687Z,69.80
2018-09-27T23:38:34.672Z,69.90
2018-09-27T23:41:02.677Z,70.10
2018-09-27T23:43:30.669Z,70.10
2018-09-27T23:45:58.554Z,70.90
2018-09-27T23:48:26.532Z,70.10
2018-09-27T23:50:54.460Z,70.50
2018-09-27T23:53:23.316Z,70.50
2018-09-27T23:55:51.240Z,70.60
2018-09-27T23:58:19.242Z,70.90
